createdAt,value
2018-08-22T00:01:32.191Z,16.80
2018-08-22T00:06:35.238Z,16.70
2018-08-22T00:11:38.209Z,16.60
2018-08-22T00:16:41.182Z,16.60
2018-08-22T00:21:44.281Z,16.50
2018-08-22T00:26:47.270Z,16.50
2018-08-22T00:31:50.246Z,16.40
2018-08-22T00:36:53.265Z,16.40
2018-08-22T00:41:56.342Z,16.40
2018-08-22T00:46:59.434Z,16.30
2018-08-22T00:52:02.400Z,16.30
2018-08-22T00:57:05.375Z,16.20
2018-08-22T01:02:08.337Z,16.10
2018-08-22T01:07:11.314Z,16.10
2018-08-22T01:12:14.398Z,16.00
2018-08-22T01:17:17.489Z,15.90
2018-08-22T01:22:20.613Z,15.90
2018-08-22T01:27:23.954Z,15.80
2018-08-22T01:32:27.062Z,15.80
2018-08-22T01:37:30.058Z,15.80
2018-08-22T01:42:33.039Z,15.70
2018-08-22T01:47:36.013Z,15.60
2018-08-22T01:52:38.996Z,15.60
2018-08-22T01:57:42.002Z,15.50
2018-08-22T02:02:45.270Z,15.50
2018-08-22T02:07:48.250Z,15.40
2018-08-22T02:12:51.267Z,15.40
2018-08-22T02:17:54.590Z,15.30
2018-08-22T02:22:57.819Z,15.30
2018-08-22T02:28:00.886Z,15.30
2018-08-22T02:33:03.884Z,15.20
2018-08-22T02:38:06.918Z,15.10
2018-08-22T02:43:09.913Z,15.10
2018-08-22T02:48:12.943Z,15.00
2018-08-22T02:53:16.070Z,15.00
2018-08-22T02:58:19.066Z,14.90
2018-08-22T03:03:22.118Z,14.90
2018-08-22T03:08:25.291Z,14.80
2018-08-22T03:13:28.534Z,14.80
2018-08-22T03:18:31.547Z,14.80
2018-08-22T03:23:34.541Z,14.70
2018-08-22T03:28:37.534Z,14.60
2018-08-22T03:33:40.542Z,14.60
2018-08-22T03:38:43.695Z,14.60
2018-08-22T03:43:46.771Z,14.60
2018-08-22T03:48:49.757Z,14.50
2018-08-22T03:53:52.945Z,14.50
2018-08-22T03:58:56.141Z,14.50
2018-08-22T04:03:59.258Z,14.50
2018-08-22T04:09:02.298Z,14.50
2018-08-22T04:14:05.337Z,14.40
2018-08-22T04:19:08.325Z,14.40
2018-08-22T04:24:11.310Z,14.40
2018-08-22T04:29:14.499Z,14.40
2018-08-22T04:34:17.494Z,14.40
2018-08-22T04:39:20.498Z,14.40
2018-08-22T04:44:23.522Z,14.40
2018-08-22T04:49:26.853Z,14.40
2018-08-22T04:54:29.882Z,14.50
2018-08-22T04:59:32.891Z,14.70
2018-08-22T05:04:35.882Z,14.80
2018-08-22T05:09:38.871Z,15.10
2018-08-22T05:14:41.890Z,15.30
2018-08-22T05:19:44.883Z,15.50
2018-08-22T05:24:47.938Z,15.80
2018-08-22T05:29:50.930Z,16.00
2018-08-22T05:34:54.218Z,16.20
2018-08-22T05:39:57.746Z,16.40
2018-08-22T05:45:00.945Z,16.60
2018-08-22T05:50:04.258Z,16.80
2018-08-22T05:55:07.251Z,17.10
2018-08-22T06:00:10.257Z,17.50
2018-08-22T06:05:13.298Z,18.00
2018-08-22T06:10:16.382Z,18.60
2018-08-22T06:15:19.367Z,19.10
2018-08-22T06:20:22.382Z,19.60
2018-08-22T06:25:25.462Z,20.10
2018-08-22T06:30:28.647Z,20.60
2018-08-22T06:35:31.702Z,21.10
2018-08-22T06:40:34.689Z,21.60
2018-08-22T06:45:37.683Z,22.10
2018-08-22T06:50:40.714Z,22.60
2018-08-22T06:55:43.846Z,23.10
2018-08-22T07:00:46.851Z,23.60
2018-08-22T07:05:49.849Z,24.00
2018-08-22T07:10:52.906Z,24.40
2018-08-22T07:15:56.164Z,24.80
2018-08-22T07:20:59.267Z,25.40
2018-08-22T07:26:02.180Z,25.90
2018-08-22T07:31:05.246Z,26.50
2018-08-22T07:36:08.234Z,27.00
2018-08-22T07:41:12.238Z,27.40
2018-08-22T07:46:15.322Z,27.90
2018-08-22T07:51:18.366Z,28.40
2018-08-22T07:56:22.294Z,28.90
2018-08-22T08:01:25.510Z,29.30
2018-08-22T08:06:28.547Z,29.90
2018-08-22T08:11:31.550Z,30.30
2018-08-22T08:16:34.650Z,30.80
2018-08-22T08:21:37.998Z,31.20
2018-08-22T08:26:41.006Z,31.70
2018-08-22T08:31:44.010Z,32.20
2018-08-22T08:36:47.046Z,32.60
2018-08-22T08:41:50.063Z,33.10
2018-08-22T08:46:53.560Z,33.30
2018-08-22T08:51:57.803Z,33.70
2018-08-22T08:57:00.846Z,34.10
2018-08-22T09:02:03.859Z,34.40
2018-08-22T09:07:06.882Z,34.80
2018-08-22T09:12:09.950Z,34.90
2018-08-22T09:17:13.035Z,34.80
2018-08-22T09:22:16.024Z,35.20
2018-08-22T09:27:19.017Z,35.70
2018-08-22T09:32:22.075Z,35.90
2018-08-22T09:37:25.148Z,35.60
2018-08-22T09:42:28.302Z,34.90
2018-08-22T09:47:31.342Z,34.40
2018-08-22T09:52:34.363Z,34.10
2018-08-22T09:57:37.363Z,33.90
2018-08-22T10:02:40.365Z,33.50
2018-08-22T10:07:43.398Z,33.20
2018-08-22T10:12:46.498Z,33.10
2018-08-22T10:17:49.511Z,33.10
2018-08-22T10:22:52.522Z,33.10
2018-08-22T10:27:55.715Z,33.50
2018-08-22T10:32:58.749Z,33.70
2018-08-22T10:38:02.022Z,33.70
2018-08-22T10:43:05.050Z,33.70
2018-08-22T10:48:08.106Z,34.00
2018-08-22T10:53:11.043Z,33.80
2018-08-22T10:58:14.050Z,33.90
2018-08-22T11:03:17.055Z,34.00
2018-08-22T11:08:20.050Z,34.10
2018-08-22T11:13:23.090Z,34.40
2018-08-22T11:18:26.391Z,34.70
2018-08-22T11:23:40.669Z,35.10
2018-08-22T11:28:55.061Z,35.40
2018-08-22T11:34:09.528Z,35.80
2018-08-22T11:39:12.551Z,36.00
2018-08-22T11:44:15.755Z,36.10
2018-08-22T11:49:18.802Z,36.20
2018-08-22T11:54:21.835Z,36.20
2018-08-22T11:59:24.967Z,36.30
2018-08-22T12:04:28.142Z,36.30
2018-08-22T12:09:31.141Z,36.40
2018-08-22T12:14:34.146Z,36.60
2018-08-22T12:19:37.163Z,36.60
2018-08-22T12:24:40.166Z,36.70
2018-08-22T12:29:43.186Z,36.70
2018-08-22T12:34:46.198Z,36.70
2018-08-22T12:39:49.207Z,36.70
2018-08-22T12:44:52.592Z,36.80
2018-08-22T12:49:55.655Z,36.80
2018-08-22T12:54:58.650Z,36.80
2018-08-22T13:00:01.699Z,36.80
2018-08-22T13:05:04.714Z,36.80
2018-08-22T13:10:07.726Z,36.70
2018-08-22T13:15:10.813Z,36.30
2018-08-22T13:20:13.882Z,36.20
2018-08-22T13:25:16.882Z,35.90
2018-08-22T13:30:19.908Z,36.10
2018-08-22T13:35:23.102Z,36.30
2018-08-22T13:40:26.203Z,36.30
2018-08-22T13:45:29.354Z,36.30
2018-08-22T13:50:32.349Z,36.10
2018-08-22T13:55:35.366Z,36.10
2018-08-22T14:00:38.373Z,36.30
2018-08-22T14:05:41.450Z,36.90
2018-08-22T14:10:44.633Z,37.70
2018-08-22T14:15:47.703Z,37.90
2018-08-22T14:20:50.732Z,37.80
2018-08-22T14:25:54.381Z,37.00
2018-08-22T14:30:57.566Z,36.40
2018-08-22T14:36:00.613Z,36.30
2018-08-22T14:41:03.609Z,35.90
2018-08-22T14:46:06.598Z,35.50
2018-08-22T14:51:09.650Z,35.20
2018-08-22T14:56:12.883Z,34.70
2018-08-22T15:01:15.855Z,34.20
2018-08-22T15:21:51.338Z,33.30
2018-08-22T15:26:54.342Z,31.90
2018-08-22T15:31:57.362Z,31.40
2018-08-22T15:37:00.367Z,30.90
2018-08-22T15:42:03.472Z,30.50
2018-08-22T15:47:06.434Z,30.20
2018-08-22T15:52:09.411Z,29.90
2018-08-22T15:57:12.415Z,29.70
2018-08-22T16:02:15.433Z,29.50
2018-08-22T16:07:18.442Z,29.30
2018-08-22T16:12:21.443Z,29.10
2018-08-22T16:17:24.447Z,29.00
2018-08-22T16:22:27.459Z,28.80
2018-08-22T16:27:30.886Z,28.70
2018-08-22T16:32:33.891Z,28.60
2018-08-22T16:37:38.045Z,28.40
2018-08-22T16:42:41.051Z,28.30
2018-08-22T16:47:44.082Z,28.20
2018-08-22T16:52:47.189Z,28.10
2018-08-22T16:57:50.982Z,27.90
2018-08-22T17:02:53.991Z,27.80
2018-08-22T17:07:57.148Z,27.70
2018-08-22T17:13:00.166Z,27.70
2018-08-22T17:18:03.175Z,27.50
2018-08-22T17:23:06.250Z,27.50
2018-08-22T17:28:09.198Z,27.40
2018-08-22T17:33:12.719Z,27.30
2018-08-22T17:38:15.718Z,27.20
2018-08-22T17:43:20.541Z,27.00
2018-08-22T17:48:23.631Z,26.80
2018-08-22T17:53:27.067Z,26.60
2018-08-22T17:58:30.247Z,26.30
2018-08-22T18:03:33.250Z,26.10
2018-08-22T18:08:36.369Z,25.90
2018-08-22T18:13:39.407Z,25.70
2018-08-22T18:18:42.414Z,25.40
2018-08-22T18:23:51.645Z,25.20
2018-08-22T18:28:54.710Z,25.00
2018-08-22T18:34:00.717Z,24.80
2018-08-22T18:39:07.816Z,24.50
2018-08-22T18:44:10.958Z,24.40
2018-08-22T18:49:14.359Z,24.10
2018-08-22T18:54:17.575Z,23.90
2018-08-22T18:59:24.892Z,23.80
2018-08-22T19:04:28.251Z,23.60
2018-08-22T19:09:31.434Z,23.40
2018-08-22T19:14:44.018Z,23.20
2018-08-22T19:19:48.314Z,23.00
2018-08-22T19:25:03.395Z,22.90
2018-08-22T19:30:07.127Z,22.70
2018-08-22T19:35:10.331Z,22.60
2018-08-22T19:40:13.337Z,22.40
2018-08-22T19:45:16.449Z,22.30
2018-08-22T19:50:19.886Z,22.10
2018-08-22T19:55:23.303Z,22.00
2018-08-22T20:00:26.470Z,21.90
2018-08-22T20:05:49.615Z,21.80
2018-08-22T20:10:52.675Z,21.60
2018-08-22T20:15:55.727Z,21.60
2018-08-22T20:20:59.010Z,21.40
2018-08-22T20:26:02.019Z,21.30
2018-08-22T20:31:09.445Z,21.30
2018-08-22T20:36:12.910Z,21.20
2018-08-22T20:41:16.654Z,21.10
2018-08-22T20:46:19.775Z,21.00
2018-08-22T20:51:22.798Z,20.90
2018-08-22T20:56:25.819Z,20.80
2018-08-22T21:01:28.842Z,20.70
2018-08-22T21:06:31.863Z,20.60
2018-08-22T21:11:35.882Z,20.50
2018-08-22T21:16:39.212Z,20.40
2018-08-22T21:21:42.246Z,20.30
2018-08-22T21:26:45.682Z,20.20
2018-08-22T21:31:48.698Z,20.20
2018-08-22T21:36:51.723Z,20.10
2018-08-22T21:41:54.924Z,20.00
2018-08-22T21:47:03.110Z,19.90
2018-08-22T21:52:06.134Z,19.80
2018-08-22T21:57:09.167Z,19.80
2018-08-22T22:02:12.506Z,19.70
2018-08-22T22:07:15.536Z,19.60
2018-08-22T22:12:23.978Z,19.60
2018-08-22T22:17:27.005Z,19.40
2018-08-22T22:22:30.134Z,19.40
2018-08-22T22:27:33.158Z,19.30
2018-08-22T22:32:36.170Z,19.20
2018-08-22T22:37:39.194Z,19.20
2018-08-22T22:42:42.198Z,19.00
2018-08-22T22:47:45.222Z,19.00
2018-08-22T22:52:48.330Z,18.90
2018-08-22T22:57:51.350Z,18.90
2018-08-22T23:02:59.819Z,18.80
2018-08-22T23:08:03.178Z,18.80
2018-08-22T23:13:06.201Z,18.70
2018-08-22T23:18:09.235Z,18.60
2018-08-22T23:23:29.307Z,18.60
2018-08-22T23:28:32.315Z,18.50
2018-08-22T23:33:35.351Z,18.40
2018-08-22T23:38:38.379Z,18.40
2018-08-22T23:43:46.958Z,18.30
2018-08-22T23:48:55.187Z,18.20
2018-08-22T23:53:59.444Z,18.10
2018-08-22T23:59:02.510Z,18.10
